createdAt,value
2023-04-18T09:26:30.945Z,3.40
2023-04-18T09:30:09.522Z,3.05
2023-04-18T09:33:31.117Z,3.97
2023-04-18T09:36:24.113Z,3.47
2023-04-18T09:45:39.853Z,2.00
2023-04-18T09:48:18.055Z,2.15
2023-04-18T09:51:04.235Z,2.70
2023-04-18T09:53:42.456Z,2.33
2023-04-18T09:56:28.564Z,1.70
2023-04-18T09:59:52.090Z,1.98
2023-04-18T10:02:29.534Z,3.38
2023-04-18T10:05:10.226Z,1.50
2023-04-18T10:11:43.914Z,1.75
2023-04-18T10:14:24.434Z,1.70
2023-04-18T10:17:00.463Z,1.52
2023-04-18T10:19:36.057Z,4.30
2023-04-18T10:26:12.534Z,3.13
2023-04-18T10:29:01.285Z,3.20
2023-04-18T10:31:53.292Z,3.60
2023-04-18T10:34:33.492Z,3.10
2023-04-18T10:37:06.628Z,3.63
2023-04-18T10:40:13.669Z,3.35
2023-04-18T10:42:52.011Z,3.50
2023-04-18T10:45:31.861Z,3.70
2023-04-18T10:48:30.381Z,3.53
2023-04-18T10:51:21.073Z,3.53
2023-04-18T10:54:00.613Z,3.85
2023-04-18T10:56:33.406Z,4.20
2023-04-18T10:59:06.375Z,4.55
2023-04-18T11:01:43.022Z,3.90
2023-04-18T11:04:17.573Z,4.15
2023-04-18T11:06:53.344Z,4.13
2023-04-18T11:09:26.560Z,5.47
2023-04-18T11:12:06.481Z,3.97
2023-04-18T11:14:48.398Z,4.65
2023-04-18T11:17:43.004Z,4.55
2023-04-18T11:20:15.625Z,4.82
2023-04-18T11:22:51.008Z,4.25
2023-04-18T11:25:32.217Z,3.97
2023-04-18T11:28:05.268Z,4.35
2023-04-18T11:30:42.679Z,4.93
2023-04-18T11:33:15.990Z,3.85
2023-04-18T11:35:48.312Z,4.68
2023-04-18T11:38:22.207Z,4.32
2023-04-18T11:40:55.578Z,4.75
2023-04-18T11:43:28.903Z,4.53
2023-04-18T11:46:01.986Z,6.22
2023-04-18T11:48:39.845Z,5.10
2023-04-18T11:51:40.479Z,4.97
2023-04-18T11:54:40.715Z,7.85
2023-04-18T11:57:32.301Z,4.72
2023-04-18T12:00:07.283Z,4.60
2023-04-18T12:02:45.941Z,4.03
2023-04-18T12:05:37.069Z,5.32
2023-04-18T12:08:19.339Z,3.90
2023-04-18T12:10:53.898Z,3.13
2023-04-18T12:13:35.756Z,3.72
2023-04-18T12:16:08.416Z,3.50
2023-04-18T12:18:42.316Z,4.70
2023-04-18T12:21:17.377Z,3.60
2023-04-18T12:23:49.997Z,3.42
2023-04-18T12:26:23.955Z,4.47
2023-04-18T12:28:56.445Z,3.95
2023-04-18T12:31:29.145Z,3.88
2023-04-18T12:34:01.620Z,3.60
2023-04-18T12:36:33.798Z,3.63
2023-04-18T12:39:06.255Z,3.53
2023-04-18T12:41:41.600Z,3.20
2023-04-18T12:44:14.080Z,4.07
2023-04-18T12:46:46.457Z,3.78
2023-04-18T12:49:18.636Z,4.28
2023-04-18T12:51:50.899Z,3.20
2023-04-18T12:54:23.201Z,5.65
2023-04-18T12:56:55.771Z,3.67
2023-04-18T12:59:31.808Z,2.90
2023-04-18T13:02:04.268Z,3.55
2023-04-18T13:04:36.744Z,3.35
2023-04-18T13:07:12.628Z,2.90
2023-04-18T13:09:48.618Z,3.78
2023-04-18T13:12:21.188Z,3.92
2023-04-18T13:14:53.467Z,3.22
2023-04-18T13:17:26.599Z,2.65
2023-04-18T13:20:06.399Z,3.28
2023-04-18T13:22:40.686Z,3.40
2023-04-18T13:25:13.509Z,3.20
2023-04-18T13:27:46.355Z,4.03
2023-04-18T13:30:24.396Z,3.58
2023-04-18T13:32:57.014Z,2.95
2023-04-18T13:35:32.757Z,3.35
2023-04-18T13:38:05.186Z,3.63
2023-04-18T13:40:39.059Z,3.47
2023-04-18T13:43:13.372Z,3.33
2023-04-18T13:45:45.667Z,3.63
2023-04-18T13:48:18.038Z,3.72
2023-04-18T13:50:51.363Z,4.10
2023-04-18T13:53:23.721Z,3.88
2023-04-18T13:55:56.125Z,3.97
2023-04-18T13:58:28.780Z,4.28
2023-04-18T14:01:01.186Z,3.67
2023-04-18T14:03:35.289Z,3.67
2023-04-18T14:06:08.544Z,4.40
2023-04-18T14:08:41.190Z,4.03
2023-04-18T14:11:13.723Z,4.00
2023-04-18T14:13:46.306Z,4.60
2023-04-18T14:16:19.495Z,4.40
2023-04-18T14:18:51.860Z,4.38
2023-04-18T14:21:24.824Z,5.57
2023-04-18T14:23:57.183Z,3.72
2023-04-18T14:26:29.813Z,4.22
2023-04-18T14:29:05.414Z,4.18
2023-04-18T14:31:37.825Z,4.45
2023-04-18T14:34:10.093Z,4.82
2023-04-18T14:36:42.260Z,3.90
2023-04-18T14:39:14.791Z,4.47
2023-04-18T14:41:47.305Z,4.22
2023-04-18T14:44:19.793Z,4.72
2023-04-18T14:46:52.174Z,4.47
2023-04-18T14:49:24.562Z,4.55
2023-04-18T14:51:57.213Z,4.50
2023-04-18T14:54:31.027Z,5.22
2023-04-18T14:57:08.864Z,5.28
2023-04-18T14:59:41.154Z,4.95
2023-04-18T15:02:16.712Z,4.30
2023-04-18T15:04:57.025Z,4.70
2023-04-18T15:10:09.052Z,5.53
2023-04-18T15:12:42.918Z,5.03
2023-04-18T15:15:16.804Z,4.75
2023-04-18T15:17:49.082Z,5.35
2023-04-18T15:20:23.631Z,5.03
2023-04-18T15:22:57.540Z,4.97
2023-04-18T15:25:30.751Z,5.22
2023-04-18T15:28:03.225Z,6.03
2023-04-18T15:30:35.503Z,5.03
2023-04-18T15:33:08.354Z,5.13
2023-04-18T15:35:46.668Z,5.75
2023-04-18T15:38:19.340Z,5.20
2023-04-18T15:40:52.036Z,4.78
2023-04-18T15:43:24.485Z,4.65
2023-04-18T15:45:56.869Z,6.05
2023-04-18T15:48:30.476Z,5.43
2023-04-18T15:51:03.972Z,5.55
2023-04-18T15:53:36.540Z,6.68
2023-04-18T15:56:08.912Z,7.00
2023-04-18T15:58:41.156Z,5.88
2023-04-18T16:01:16.170Z,5.20
2023-04-18T16:03:49.148Z,5.57
2023-04-18T16:06:24.529Z,5.32
2023-04-18T16:08:57.158Z,5.93
2023-04-18T16:11:29.336Z,5.65
2023-04-18T16:14:01.429Z,6.50
2023-04-18T16:16:34.565Z,7.07
2023-04-18T16:19:06.722Z,6.57
2023-04-18T16:21:41.918Z,7.40
2023-04-18T16:24:16.580Z,8.55
2023-04-18T16:26:49.031Z,7.53
2023-04-18T16:29:21.419Z,7.13
2023-04-18T16:31:53.868Z,6.72
2023-04-18T16:34:26.408Z,6.75
2023-04-18T16:36:58.757Z,8.10
2023-04-18T16:39:31.331Z,8.07
2023-04-18T16:42:09.583Z,8.45
2023-04-18T16:44:41.847Z,7.80
2023-04-18T16:47:17.470Z,8.30
2023-04-18T16:49:51.552Z,7.80
2023-04-18T16:52:24.731Z,7.80
2023-04-18T16:54:59.392Z,7.45
2023-04-18T16:57:31.666Z,7.93
2023-04-18T17:00:05.277Z,8.98
2023-04-18T17:02:39.798Z,8.63
2023-04-18T17:05:13.644Z,9.32
2023-04-18T17:07:46.389Z,9.32
2023-04-18T17:10:21.738Z,9.10
2023-04-18T17:12:53.895Z,9.27
2023-04-18T17:15:27.833Z,9.43
2023-04-18T17:18:01.464Z,10.18
2023-04-18T17:20:33.782Z,10.13
2023-04-18T17:23:05.954Z,9.25
2023-04-18T17:25:38.254Z,9.23
2023-04-18T17:28:10.470Z,9.93
2023-04-18T17:30:42.950Z,10.10
2023-04-18T17:33:15.158Z,10.15
2023-04-18T17:35:50.514Z,9.43
2023-04-18T17:38:24.391Z,9.02
2023-04-18T17:41:00.359Z,10.82
2023-04-18T17:43:35.769Z,10.48
2023-04-18T17:46:08.296Z,10.45
2023-04-18T17:48:41.547Z,9.88
2023-04-18T17:51:16.603Z,9.68
2023-04-18T17:53:55.770Z,9.90
2023-04-18T17:56:51.895Z,9.80
2023-04-18T17:59:25.886Z,9.18
2023-04-18T18:02:01.259Z,9.98
2023-04-18T18:04:35.175Z,11.00
2023-04-18T18:07:50.796Z,10.20
2023-04-18T18:10:24.055Z,8.77
2023-04-18T18:12:56.741Z,10.23
2023-04-18T18:15:33.610Z,10.88
2023-04-18T18:18:10.395Z,9.68
2023-04-18T18:20:46.107Z,10.43
2023-04-18T18:24:01.725Z,10.25
2023-04-18T18:26:35.408Z,8.93
2023-04-18T18:29:11.370Z,10.23
2023-04-18T18:31:43.561Z,9.88
2023-04-18T18:34:15.995Z,10.32
2023-04-18T18:36:48.185Z,10.63
2023-04-18T18:39:26.179Z,9.98
2023-04-18T18:41:58.765Z,10.23
2023-04-18T18:44:31.164Z,9.38
2023-04-18T18:47:03.464Z,10.32
2023-04-18T18:49:36.435Z,9.20
2023-04-18T18:52:08.688Z,10.68
2023-04-18T18:54:40.926Z,10.30
2023-04-18T18:57:13.267Z,9.82
2023-04-18T18:59:45.490Z,10.38
2023-04-18T19:02:18.158Z,10.68
2023-04-18T19:04:50.922Z,10.02
2023-04-18T19:07:23.400Z,9.40
2023-04-18T19:09:55.798Z,9.02
2023-04-18T19:12:28.870Z,9.35
2023-04-18T19:15:01.972Z,9.40
2023-04-18T19:17:34.552Z,9.82
2023-04-18T19:20:11.357Z,9.73
2023-04-18T19:22:43.620Z,9.20
2023-04-18T19:25:15.829Z,9.15
2023-04-18T19:27:48.163Z,8.93
2023-04-18T19:30:20.601Z,9.52
2023-04-18T19:32:58.517Z,9.35
2023-04-18T19:35:31.032Z,8.75
2023-04-18T19:38:03.865Z,9.50
2023-04-18T19:40:36.215Z,9.35
2023-04-18T19:43:08.796Z,8.93
2023-04-18T19:45:41.319Z,8.05
2023-04-18T19:48:13.858Z,8.90
2023-04-18T19:50:46.905Z,8.93
2023-04-18T19:53:20.720Z,8.48
2023-04-18T20:02:40.365Z,10.18
2023-04-18T20:05:13.199Z,9.23
2023-04-18T20:07:45.736Z,8.38
2023-04-18T20:10:46.935Z,8.57
2023-04-18T20:13:22.146Z,9.30
2023-04-18T20:15:56.316Z,9.20
2023-04-18T20:18:30.703Z,9.23
2023-04-18T20:21:05.534Z,9.40
2023-04-18T20:23:42.342Z,9.73
2023-04-18T20:26:17.226Z,9.07
2023-04-18T20:28:49.470Z,10.00
2023-04-18T20:31:24.435Z,9.30
2023-04-18T20:33:56.771Z,8.85
2023-04-18T20:36:37.180Z,9.95
2023-04-18T20:41:51.552Z,9.13
2023-04-18T20:44:25.086Z,9.35
2023-04-18T20:46:57.536Z,9.38
2023-04-18T20:49:30.178Z,8.65
2023-04-18T20:52:22.734Z,8.90
2023-04-18T20:54:54.953Z,8.30
2023-04-18T20:58:24.896Z,8.20
2023-04-18T21:01:01.305Z,8.80
2023-04-18T21:03:33.863Z,8.25
2023-04-18T21:06:06.264Z,8.48
2023-04-18T21:08:39.698Z,8.43
2023-04-18T21:11:12.622Z,9.13
2023-04-18T21:13:44.801Z,8.40
2023-04-18T21:16:17.224Z,9.90
2023-04-18T21:18:49.686Z,8.65
2023-04-18T21:21:21.989Z,8.90
2023-04-18T21:23:54.395Z,9.02
2023-04-18T21:26:26.897Z,8.85
2023-04-18T21:29:04.976Z,8.68
2023-04-18T21:31:37.482Z,8.23
2023-04-18T21:34:11.442Z,8.32
2023-04-18T21:36:43.928Z,8.20
2023-04-18T21:39:17.289Z,8.95
2023-04-18T21:41:49.738Z,8.02
2023-04-18T21:44:21.977Z,10.98
2023-04-18T21:46:54.407Z,8.18
2023-04-18T21:49:26.744Z,8.40
2023-04-18T21:51:59.367Z,7.70
2023-04-18T21:54:31.726Z,8.23
2023-04-18T21:57:06.118Z,7.93
2023-04-18T21:59:38.254Z,7.80
2023-04-18T22:02:10.517Z,7.05
2023-04-18T22:04:43.044Z,7.45
2023-04-18T22:07:19.110Z,8.40
2023-04-18T22:09:51.621Z,8.07
2023-04-18T22:12:24.725Z,8.63
2023-04-18T22:14:57.114Z,8.15
2023-04-18T22:17:30.232Z,8.40
2023-04-18T22:20:06.953Z,7.93
2023-04-18T22:22:43.468Z,8.25
2023-04-18T22:25:17.900Z,7.40
2023-04-18T22:27:52.473Z,7.30
2023-04-18T22:30:24.828Z,7.55
2023-04-18T22:32:58.575Z,7.30
2023-04-18T22:35:30.988Z,7.60
2023-04-18T22:38:03.382Z,7.43
2023-04-18T22:40:35.563Z,8.10
2023-04-18T22:43:08.015Z,7.97
2023-04-18T22:45:40.583Z,7.22
2023-04-18T22:48:13.792Z,7.50
2023-04-18T22:50:46.581Z,7.57
2023-04-18T22:53:18.790Z,8.27
2023-04-18T22:55:51.315Z,7.20
2023-04-18T22:58:23.651Z,6.65
2023-04-18T23:00:55.998Z,7.57
2023-04-18T23:03:28.281Z,7.50
2023-04-18T23:06:01.379Z,7.22
2023-04-18T23:08:33.551Z,6.75
2023-04-18T23:11:05.757Z,7.47
2023-04-18T23:13:37.903Z,7.60
2023-04-18T23:16:10.084Z,6.32
2023-04-18T23:18:42.203Z,7.18
2023-04-18T23:21:25.483Z,7.50
2023-04-18T23:23:57.619Z,6.57
2023-04-18T23:26:29.738Z,6.95
2023-04-18T23:29:01.862Z,7.13
2023-04-18T23:31:34.018Z,6.63
2023-04-18T23:34:06.137Z,6.80
2023-04-18T23:36:38.270Z,6.28
2023-04-18T23:39:10.395Z,6.40
2023-04-18T23:41:42.513Z,6.47
2023-04-18T23:44:14.851Z,6.20
2023-04-18T23:46:48.080Z,6.20
2023-04-18T23:49:20.208Z,6.20
2023-04-18T23:51:52.256Z,5.43
2023-04-18T23:54:24.349Z,5.55
2023-04-18T23:56:57.298Z,6.07
2023-04-18T23:59:29.424Z,6.07
